createdAt,value
2022-12-04T15:21:34.901Z,6.60
2022-12-04T15:24:01.245Z,6.51
2022-12-04T15:26:27.606Z,6.43
2022-12-04T15:28:53.975Z,6.49
2022-12-04T15:31:20.353Z,6.42
2022-12-04T15:33:46.654Z,6.52
2022-12-04T15:36:13.076Z,6.55
2022-12-04T15:38:39.459Z,6.52
2022-12-04T15:41:05.772Z,6.50
2022-12-04T15:43:32.195Z,6.48
2022-12-04T15:45:58.632Z,6.50
2022-12-04T15:48:24.973Z,6.49
2022-12-04T15:50:51.333Z,6.42
2022-12-04T15:53:17.743Z,6.36
2022-12-04T15:55:44.027Z,6.36
2022-12-04T15:58:10.396Z,6.34
2022-12-04T16:00:36.711Z,6.32
2022-12-04T16:03:03.054Z,6.27
2022-12-04T16:05:29.417Z,6.25
2022-12-04T16:07:55.835Z,6.21
2022-12-04T16:10:22.126Z,6.19
2022-12-04T16:12:48.503Z,6.20
2022-12-04T16:15:14.860Z,6.20
2022-12-04T16:17:41.224Z,6.18
2022-12-04T16:20:07.545Z,6.15
2022-12-04T16:22:33.931Z,6.23
2022-12-04T16:25:00.505Z,6.13
2022-12-04T16:27:26.611Z,6.14
2022-12-04T16:29:52.967Z,6.11
2022-12-04T16:32:19.315Z,6.13
2022-12-04T16:34:45.662Z,6.09
2022-12-04T16:37:12.045Z,6.15
2022-12-04T16:39:41.453Z,6.11
2022-12-04T16:42:04.803Z,6.12
2022-12-04T16:44:31.163Z,6.13
2022-12-04T16:46:57.589Z,6.15
2022-12-04T16:49:23.978Z,6.06
2022-12-04T16:51:50.319Z,6.06
2022-12-04T16:54:16.683Z,6.07
2022-12-04T16:56:43.048Z,6.03
2022-12-04T16:59:12.118Z,6.09
2022-12-04T17:01:35.808Z,6.09
2022-12-04T17:04:02.134Z,6.14
2022-12-04T17:06:28.481Z,6.20
2022-12-04T17:08:54.821Z,6.21
2022-12-04T17:11:21.162Z,6.25
2022-12-04T17:13:47.517Z,6.23
2022-12-04T17:16:15.209Z,6.19
2022-12-04T17:18:40.239Z,6.28
2022-12-04T17:21:06.622Z,6.18
2022-12-04T17:23:33.076Z,6.18
2022-12-04T17:25:59.489Z,6.13
2022-12-04T17:28:25.865Z,6.17
2022-12-04T17:30:52.239Z,6.14
2022-12-04T17:33:18.592Z,6.08
2022-12-04T17:35:44.936Z,6.16
2022-12-04T17:38:11.306Z,6.13
2022-12-04T17:40:37.645Z,6.14
2022-12-04T17:43:03.961Z,6.09
2022-12-04T17:45:30.312Z,6.08
2022-12-04T17:47:56.686Z,6.09
2022-12-04T17:50:23.059Z,6.12
2022-12-04T17:52:49.405Z,6.15
2022-12-04T17:55:15.798Z,6.16
2022-12-04T17:57:42.140Z,6.16
2022-12-04T18:00:08.493Z,6.16
2022-12-04T18:02:34.904Z,6.16
2022-12-04T18:05:01.155Z,6.12
2022-12-04T18:07:27.670Z,6.17
2022-12-04T18:09:54.028Z,6.15
2022-12-04T18:12:20.279Z,6.15
2022-12-04T18:14:46.664Z,6.14
2022-12-04T18:17:12.987Z,6.14
2022-12-04T18:19:39.386Z,6.00
2022-12-04T18:22:06.515Z,6.04
2022-12-04T18:24:32.707Z,6.03
2022-12-04T18:26:59.028Z,6.01
2022-12-04T18:29:25.375Z,5.92
2022-12-04T18:31:51.843Z,5.98
2022-12-04T18:34:18.076Z,5.96
2022-12-04T18:36:44.443Z,6.01
2022-12-04T18:39:10.912Z,6.02
2022-12-04T18:41:37.179Z,6.04
2022-12-04T18:44:03.568Z,6.07
2022-12-04T18:46:29.988Z,6.00
2022-12-04T18:48:56.303Z,6.04
2022-12-04T18:51:22.662Z,6.04
2022-12-04T18:53:49.044Z,6.07
2022-12-04T18:56:15.429Z,6.06
2022-12-04T18:58:41.803Z,5.96
2022-12-04T19:01:08.181Z,5.99
2022-12-04T19:03:34.543Z,6.04
2022-12-04T19:06:00.879Z,6.12
2022-12-04T19:08:32.705Z,6.13
2022-12-04T19:10:53.611Z,6.11
2022-12-04T19:13:19.995Z,6.06
2022-12-04T19:15:46.336Z,6.13
2022-12-04T19:18:12.695Z,6.11
2022-12-04T19:20:39.025Z,6.10
2022-12-04T19:23:05.418Z,6.12
2022-12-04T19:25:31.762Z,6.12
2022-12-04T19:27:58.357Z,6.12
2022-12-04T19:30:24.490Z,6.11
2022-12-04T19:32:50.879Z,6.09
2022-12-04T19:35:17.191Z,6.09
2022-12-04T19:37:48.146Z,6.08
2022-12-04T19:40:09.942Z,6.09
2022-12-04T19:42:36.272Z,6.07
2022-12-04T19:45:02.612Z,6.10
2022-12-04T19:47:28.949Z,6.13
2022-12-04T19:49:55.481Z,6.12
2022-12-04T19:52:21.626Z,6.06
2022-12-04T19:54:47.942Z,6.09
2022-12-04T19:57:14.319Z,6.09
2022-12-04T19:59:45.722Z,6.09
2022-12-04T20:02:07.066Z,6.10
2022-12-04T20:04:33.381Z,6.11
2022-12-04T20:06:59.783Z,6.09
2022-12-04T20:09:26.148Z,6.10
2022-12-04T20:11:52.522Z,6.09
2022-12-04T20:14:18.936Z,6.13
2022-12-04T20:16:45.444Z,6.13
2022-12-04T20:19:11.709Z,6.12
2022-12-04T20:21:38.072Z,6.13
2022-12-04T20:24:04.411Z,6.16
2022-12-04T20:26:30.850Z,6.13
2022-12-04T20:28:57.205Z,6.09
2022-12-04T20:31:23.632Z,6.10
2022-12-04T20:33:49.900Z,6.07
2022-12-04T20:36:16.244Z,6.15
2022-12-04T20:38:42.607Z,6.13
2022-12-04T20:41:08.985Z,6.13
2022-12-04T20:43:35.306Z,6.10
2022-12-04T20:46:01.702Z,6.09
2022-12-04T20:48:28.025Z,6.08
2022-12-04T20:50:54.423Z,6.09
2022-12-04T20:53:20.826Z,6.06
2022-12-04T20:55:47.156Z,6.09
2022-12-04T20:58:13.518Z,6.07
2022-12-04T21:00:39.858Z,6.00
2022-12-04T21:03:06.258Z,6.00
2022-12-04T21:05:32.555Z,6.02
2022-12-04T21:07:58.948Z,6.06
2022-12-04T21:10:25.245Z,6.00
2022-12-04T21:12:51.604Z,5.99
2022-12-04T21:15:17.952Z,6.00
2022-12-04T21:17:44.311Z,5.97
2022-12-04T21:20:10.989Z,5.95
2022-12-04T21:22:36.977Z,5.99
2022-12-04T21:25:03.359Z,5.91
2022-12-04T21:27:29.681Z,5.97
2022-12-04T21:29:56.391Z,5.96
2022-12-04T21:32:22.460Z,6.00
2022-12-04T21:34:48.843Z,5.91
2022-12-04T21:37:15.158Z,6.05
2022-12-04T21:39:41.537Z,6.04
2022-12-04T21:42:07.854Z,6.06
2022-12-04T21:44:34.196Z,6.08
2022-12-04T21:47:00.645Z,6.03
2022-12-04T21:49:26.953Z,6.01
2022-12-04T21:51:58.063Z,6.04
2022-12-04T21:54:19.662Z,6.07
2022-12-04T21:56:46.073Z,6.02
2022-12-04T21:59:12.441Z,6.03
2022-12-04T22:01:38.866Z,6.03
2022-12-04T22:04:05.104Z,6.00
2022-12-04T22:06:31.462Z,5.98
2022-12-04T22:08:57.811Z,6.00
2022-12-04T22:11:24.167Z,6.04
2022-12-04T22:13:50.548Z,6.04
2022-12-04T22:16:17.005Z,6.01
2022-12-04T22:18:43.317Z,5.97
2022-12-04T22:21:09.588Z,5.97
2022-12-04T22:23:35.959Z,6.00
2022-12-04T22:26:02.374Z,6.02
2022-12-04T22:28:28.723Z,5.99
2022-12-04T22:30:55.105Z,5.95
2022-12-04T22:33:21.435Z,5.96
2022-12-04T22:35:47.796Z,5.95
2022-12-04T22:38:14.285Z,5.94
2022-12-04T22:40:40.594Z,5.88
2022-12-04T22:43:06.929Z,5.94
2022-12-04T22:45:33.284Z,5.91
2022-12-04T22:47:59.672Z,5.88
2022-12-04T22:50:26.037Z,5.89
2022-12-04T22:52:52.408Z,5.91
2022-12-04T22:55:18.716Z,5.80
2022-12-04T22:57:45.058Z,5.94
2022-12-04T23:00:11.422Z,5.95
2022-12-04T23:02:37.909Z,5.94
2022-12-04T23:05:04.235Z,5.88
2022-12-04T23:07:30.577Z,5.91
2022-12-04T23:09:57.195Z,5.94
2022-12-04T23:12:23.233Z,5.94
2022-12-04T23:14:49.591Z,5.93
2022-12-04T23:17:15.965Z,5.93
2022-12-04T23:19:42.284Z,5.98
2022-12-04T23:22:08.627Z,5.95
2022-12-04T23:24:34.984Z,5.92
2022-12-04T23:27:01.377Z,5.85
2022-12-04T23:31:54.178Z,5.83
2022-12-04T23:34:20.631Z,5.85
2022-12-04T23:36:46.955Z,5.82
2022-12-04T23:39:13.291Z,5.78
2022-12-04T23:41:39.675Z,5.81
2022-12-04T23:44:05.985Z,5.84
2022-12-04T23:46:32.426Z,5.82
2022-12-04T23:48:58.731Z,5.78
2022-12-04T23:51:25.148Z,5.78
2022-12-04T23:53:51.498Z,5.77
2022-12-04T23:56:17.846Z,5.76
2022-12-04T23:58:44.198Z,5.71
